Deronda, Wisconsin
Current Conditions -  °F | °C
As of 8:15 PM on Sunday 25 Jan 2015 (Local Time) from KOEO Reporting Station
Clear Clear  
Wind Chill: 14°   Ceiling: Unl
Heat Index: 20°   Visibility: 10mi
Dew Point: 13°   Wind: 5mph
Humidity: 74%   Direction: 180°S
Pressure: 30.07"   Gusts: NA
Location:  45.3559°N, 92.3527°W
Report Text: KOEO 260215Z AUTO 18004KT 10SM CLR M06/M10 A3007 RMK AO2 T10651105
Loading
Personal Weather Stations






























Interactive Weather Map New forecast layout! Learn more

10-Day Weather Forecast

Advertisements
Track Severe Weather on mobile